Amstetten, Austria

12:05 PM CEST on October 01, 2014 (GMT +0200)
DBSolutions, Winklarn, Austria | Change Station
CLOSE
Current Station
Personal Weather Station
Location: Winklarn, NIEDERöSTERREICH
Elevation: 1050 ft
Nearby Weather Stations

Elev 1050 ft 48.09 °N, 14.85 °E | Updated 14 seconds ago

Light Rain
Light Rain
61.3 °F
Feels Like 61.3 °F
N
0.0
Wind Variable Wind from NE
Gusts 0.0 mph

Today
High -- | Low -- °F
--% Chance of Precip.
Yesterday
High -- | Low -- °F
Precip. -- in
6:59 AM 6:40 PM
Waxing Crescent, 46% visible
Pressure 30.30 in
Visibility 3.7 miles
Clouds Few 300 ft
Mostly Cloudy 600 ft
Mostly Cloudy 1400 ft
Dew Point 58 °F
Humidity 88%
Rainfall 0.22 in
Snow Depth Not available.
UV 1.0 out of 12
Pollen Not available.
Air Quality Not available.
Flu Activity Not available.
METAR LOWL 010950Z 21003KT 6000 -RA FEW003 BKN006 BKN014 16/15 Q1026 BECMG SCT008 BKN020

More Conditions Fewer Conditions

Pressure 30.30 in
Visibility 3.7 miles
Clouds Few 300 ft
Mostly Cloudy 600 ft
Mostly Cloudy 1400 ft
Dew Point 58 °F
Humidity 88%
Rainfall 0.22 in
Snow Depth Not available.
UV 1.0 out of 12
Pollen Not available.
Air Quality Not available.
Flu Activity Not available.
METAR LOWL 010950Z 21003KT 6000 -RA FEW003 BKN006 BKN014 16/15 Q1026 BECMG SCT008 BKN020

More Conditions Fewer Conditions

10-Day Weather Forecast

Almanac

Astronomy

Oct. 01, 2014 Rise Set
Actual Time 6:59 AM CEST 6:40 PM CEST
Civil Twilight 6:28 AM CEST 7:11 PM CEST
Nautical Twilight 5:52 AM CEST 7:47 PM CEST
Astronomical Twilight 5:15 AM CEST 8:23 PM CEST
Moon 2:05 PM CEST 11:34 PM CEST
Length of Visible Light 12h 42m
Length of Day
11h 40m
Tomorrow will be 3m 28s shorter.
Waxing Crescent, 46% of the Moon is Illuminated
Today
Waxing Crescent
Oct 1
First Quarter
Oct 8
Full
Oct 15
Last Quarter
Oct 23
New

Yesterday's Extremes

Country Highs Country Lows

Community

WunderPhotos

Upload Photos

1,757,904 photos uploaded!

WunderBlogs® & News

Nearby

Snow Depth

Not available.

Earthquake Activity

City Distance Mag. Time & Date
No recent earthquake activity has been reported nearby.
Minimum magnitude displayed is 2.5.

Coastal Water Temperatures

Place Temperature
No Stations Reporting

Nearby Weather Stations